Time;durP1;ratioP1;P1;durP2;ratioP2;P2;SDS_P1;SDS_P2;PMS_P1;PMS_P2;Temp;Humidity;BMP_temperature;BMP_pressure;BME280_temperature;BME280_humidity;BME280_pressure;Samples;Min_cycle;Max_cycle;Signal;HPM_P1;HPM_P2
2021/09/27 00:00:48;;;;;;;;;;;;;;;21.48;54.04;102561.88;2076017;28;1025;-69
2021/09/27 00:01:48;;;;;;;;;;;;;;;21.46;54.57;102555.63;2076641;28;914;-69
2021/09/27 00:02:48;;;;;;;;;;;;;;;21.52;53.89;102561.84;2076573;28;866;-69
2021/09/27 00:03:48;;;;;;;;;;;;;;;21.50;54.55;102564.53;2076232;28;797;-69
2021/09/27 00:04:48;;;;;;;;;;;;;;;21.51;54.00;102566.34;2075931;28;914;-69
2021/09/27 00:05:49;;;;;;;;;;;;;;;21.51;53.83;102560.94;2075998;28;1017;-69
2021/09/27 00:06:49;;;;;;;;;;;;;;;21.53;53.94;102561.81;2076514;28;1964;-69
2021/09/27 00:07:49;;;;;;;;;;;;;;;21.53;54.29;102563.63;2076556;28;994;-69
2021/09/27 00:08:50;;;;;;;;;;;;;;;21.52;54.31;102568.13;2076063;28;1267;-69
2021/09/27 00:09:50;;;;;;;;;;;;;;;21.50;54.42;102561.84;2076361;28;977;-69
2021/09/27 00:10:53;;;;;;;;;;;;;;;21.53;53.65;102560.94;2076547;28;1323;-69
2021/09/27 00:11:53;;;;;;;;;;;;;;;21.50;54.50;102567.25;2076529;28;787;-69
2021/09/27 00:12:54;;;;;;;;;;;;;;;21.55;53.97;102569.91;2076596;28;798;-69
2021/09/27 00:13:57;;;;;;;;;;;;;;;21.57;53.76;102562.69;2076532;28;1026;-69
2021/09/27 00:14:58;;;;;;;;;;;;;;;21.53;53.78;102566.34;2076152;28;843;-68
2021/09/27 00:15:58;;;;;;;;;;;;;;;21.53;54.43;102564.50;2076536;28;827;-69
2021/09/27 00:16:59;;;;;;;;;;;;;;;21.52;53.92;102567.25;2076488;28;820;-69
2021/09/27 00:17:59;;;;;;;;;;;;;;;21.53;54.38;102566.34;2075966;28;950;-69
2021/09/27 00:18:59;;;;;;;;;;;;;;;21.55;53.39;102572.59;2075959;28;799;-68
2021/09/27 00:19:59;;;;;;;;;;;;;;;21.52;54.45;102568.13;2076216;28;962;-69
2021/09/27 00:21:00;;;;;;;;;;;;;;;21.53;53.21;102564.50;2076330;28;922;-69
2021/09/27 00:22:01;;;;;;;;;;;;;;;21.53;53.63;102560.94;2076459;28;990;-69
2021/09/27 00:23:01;;;;;;;;;;;;;;;21.52;54.05;102572.63;2076438;28;1009;-69
2021/09/27 00:24:03;;;;;;;;;;;;;;;21.54;54.31;102565.44;2069557;28;1253;-69
2021/09/27 00:25:04;;;;;;;;;;;;;;;21.56;53.27;102574.41;2068297;28;1210;-69
2021/09/27 00:26:05;;;;;;;;;;;;;;;21.51;54.01;102568.16;2067887;28;1052;-69
2021/09/27 00:27:05;;;;;;;;;;;;;;;21.53;53.95;102571.72;2068203;28;1910;-69
2021/09/27 00:28:05;;;;;;;;;;;;;;;21.54;54.22;102565.44;2068258;28;950;-68
2021/09/27 00:29:05;;;;;;;;;;;;;;;21.54;53.22;102570.81;2068284;28;855;-69
2021/09/27 00:30:06;;;;;;;;;;;;;;;21.56;53.69;102566.31;2068293;28;1009;-68
2021/09/27 00:31:06;;;;;;;;;;;;;;;21.50;54.64;102567.25;2068259;28;1025;-68
2021/09/27 00:32:06;;;;;;;;;;;;;;;21.53;53.85;102569.91;2068318;28;863;-69
2021/09/27 00:33:07;;;;;;;;;;;;;;;21.51;54.18;102566.34;2068220;28;1048;-69
2021/09/27 00:34:08;;;;;;;;;;;;;;;21.51;54.14;102566.34;2068212;28;962;-69
2021/09/27 00:35:09;;;;;;;;;;;;;;;21.50;53.49;102567.25;2068225;28;1052;-69
2021/09/27 00:36:09;;;;;;;;;;;;;;;21.51;53.76;102563.63;2068066;28;910;-69
2021/09/27 00:37:09;;;;;;;;;;;;;;;21.51;54.55;102565.47;2067986;28;853;-69
2021/09/27 00:38:10;;;;;;;;;;;;;;;21.57;54.00;102560.88;2068173;28;784;-69
2021/09/27 00:39:10;;;;;;;;;;;;;;;21.52;53.57;102561.84;2068220;28;911;-69
2021/09/27 00:40:11;;;;;;;;;;;;;;;21.51;54.16;102569.03;2068220;28;875;-69
2021/09/27 00:41:13;;;;;;;;;;;;;;;21.48;53.77;102555.63;2075700;28;1526;-69
2021/09/27 00:42:13;;;;;;;;;;;;;;;21.52;53.92;102562.72;2075245;28;759;-69
2021/09/27 00:43:14;;;;;;;;;;;;;;;21.50;53.67;102556.47;2068161;28;1228;-69
2021/09/27 00:44:15;;;;;;;;;;;;;;;21.53;54.53;102561.81;2075532;28;954;-69
2021/09/27 00:45:16;;;;;;;;;;;;;;;21.51;54.28;102554.66;2075738;28;796;-69
2021/09/27 00:46:18;;;;;;;;;;;;;;;21.51;54.14;102555.56;2068081;28;973;-69
2021/09/27 00:47:18;;;;;;;;;;;;;;;21.46;54.50;102566.41;2067752;28;1902;-69
2021/09/27 00:48:19;;;;;;;;;;;;;;;21.52;54.31;102561.84;2067990;28;840;-69
2021/09/27 00:49:19;;;;;;;;;;;;;;;21.53;53.97;102560.94;2068066;28;990;-69
2021/09/27 00:50:22;;;;;;;;;;;;;;;21.50;53.75;102559.16;2068167;28;835;-69
2021/09/27 00:51:24;;;;;;;;;;;;;;;21.52;54.37;102561.84;2068250;28;907;-68
2021/09/27 00:52:25;;;;;;;;;;;;;;;21.50;54.23;102561.84;2068074;28;887;-69
2021/09/27 00:53:29;;;;;;;;;;;;;;;21.52;53.94;102559.16;2067783;28;816;-69
2021/09/27 00:54:32;;;;;;;;;;;;;;;21.51;53.39;102562.75;2068081;28;1092;-69
2021/09/27 00:55:32;;;;;;;;;;;;;;;21.50;54.56;102563.66;2068056;28;1057;-69
2021/09/27 00:56:38;;;;;;;;;;;;;;;21.51;54.33;102560.94;2068112;28;777;-69
2021/09/27 00:57:38;;;;;;;;;;;;;;;21.54;54.07;102562.72;2067844;28;993;-69
2021/09/27 00:58:39;;;;;;;;;;;;;;;21.54;53.68;102569.00;2067490;28;1023;-68
2021/09/27 00:59:40;;;;;;;;;;;;;;;21.54;53.99;102565.44;2066869;28;812;-69
2021/09/27 01:00:41;;;;;;;;;;;;;;;21.54;53.62;102569.00;2066451;28;804;-68
2021/09/27 01:01:41;;;;;;;;;;;;;;;21.56;53.86;102569.00;2067564;28;752;-69
2021/09/27 01:02:41;;;;;;;;;;;;;;;21.52;54.09;102567.25;2067976;28;841;-69
2021/09/27 01:03:42;;;;;;;;;;;;;;;21.47;54.04;102565.50;2068076;28;974;-69
2021/09/27 01:04:42;;;;;;;;;;;;;;;21.53;53.84;102564.50;2067763;28;957;-69
2021/09/27 01:05:54;;;;;;;;;;;;;;;21.53;53.45;102566.34;2068018;28;962;-69
2021/09/27 01:07:06;;;;;;;;;;;;;;;21.52;54.26;102572.63;2067680;28;1914;-68
2021/09/27 01:08:16;;;;;;;;;;;;;;;21.50;54.03;102569.06;2067997;28;800;-68
2021/09/27 01:09:35;;;;;;;;;;;;;;;21.51;54.08;102573.53;2067813;28;1117;-69
2021/09/27 01:10:35;;;;;;;;;;;;;;;21.47;54.14;102573.56;2067934;28;823;-69
2021/09/27 01:11:38;;;;;;;;;;;;;;;21.52;53.61;102575.34;2067972;28;768;-68
2021/09/27 01:12:54;;;;;;;;;;;;;;;21.51;53.74;102574.41;2067719;28;894;-69
2021/09/27 01:14:12;;;;;;;;;;;;;;;21.52;54.16;102575.34;2067996;28;772;-68
2021/09/27 01:15:26;;;;;;;;;;;;;;;21.50;53.76;102575.34;2075401;28;1539;-68
2021/09/27 01:16:39;;;;;;;;;;;;;;;21.45;53.46;102570.00;2073883;28;776;-69
2021/09/27 01:17:41;;;;;;;;;;;;;;;21.48;54.11;102574.50;2067896;28;844;-68
2021/09/27 01:19:09;;;;;;;;;;;;;;;21.50;53.96;102572.63;2067879;28;735;-68
2021/09/27 01:20:36;;;;;;;;;;;;;;;21.50;53.83;102580.72;2067956;28;978;-68
2021/09/27 01:21:48;;;;;;;;;;;;;;;21.50;53.58;102580.72;2067944;28;994;-68
2021/09/27 01:22:56;;;;;;;;;;;;;;;21.52;53.58;102573.50;2075319;28;1152;-68
2021/09/27 01:24:24;;;;;;;;;;;;;;;21.48;54.37;102572.66;2075254;28;1465;-68
2021/09/27 01:25:43;;;;;;;;;;;;;;;21.50;54.18;102566.38;2076057;28;787;-69
2021/09/27 01:26:52;;;;;;;;;;;;;;;21.50;53.51;102569.94;2075879;28;1977;-68
2021/09/27 01:28:15;;;;;;;;;;;;;;;21.48;53.55;102575.38;2075997;28;788;-68
2021/09/27 01:29:34;;;;;;;;;;;;;;;21.50;53.60;102572.63;2066599;28;1251;-69
2021/09/27 01:30:46;;;;;;;;;;;;;;;21.51;54.16;102565.47;2067016;28;971;-69
2021/09/27 01:32:05;;;;;;;;;;;;;;;21.53;54.00;102572.59;2066874;28;1013;-68
2021/09/27 01:33:07;;;;;;;;;;;;;;;21.48;54.05;102561.88;2066934;28;942;-68
2021/09/27 01:34:28;;;;;;;;;;;;;;;21.48;53.91;102559.19;2066900;28;942;-68
2021/09/27 01:35:34;;;;;;;;;;;;;;;21.50;54.21;102569.06;2066306;28;1035;-68
2021/09/27 01:36:47;;;;;;;;;;;;;;;21.48;53.78;102567.28;2067133;28;974;-67
2021/09/27 01:37:58;;;;;;;;;;;;;;;21.50;53.91;102563.66;2066839;28;1045;-68
2021/09/27 01:39:06;;;;;;;;;;;;;;;21.50;53.53;102552.88;2066833;28;840;-68
2021/09/27 01:40:36;;;;;;;;;;;;;;;21.50;53.67;102566.38;2066877;28;2007;-68
2021/09/27 01:42:01;;;;;;;;;;;;;;;21.49;53.99;102560.06;2042783;29;1158;-68
2021/09/27 01:43:02;;;;;;;;;;;;;;;21.51;54.02;102560.06;2042736;29;1170;-68
2021/09/27 01:44:05;;;;;;;;;;;;;;;21.51;54.25;102554.66;2042820;29;1094;-68
2021/09/27 01:45:14;;;;;;;;;;;;;;;21.52;53.30;102559.16;2042824;29;978;-68
2021/09/27 01:46:23;;;;;;;;;;;;;;;21.53;53.15;102555.56;2042574;29;947;-68
2021/09/27 01:47:30;;;;;;;;;;;;;;;21.52;53.44;102561.84;2042888;29;941;-68
2021/09/27 01:48:48;;;;;;;;;;;;;;;21.51;53.61;102569.03;2042799;29;935;-68
2021/09/27 01:49:56;;;;;;;;;;;;;;;21.55;53.42;102560.00;2042813;29;983;-68
2021/09/27 01:51:17;;;;;;;;;;;;;;;21.51;53.36;102560.94;2042807;29;832;-69
2021/09/27 01:52:20;;;;;;;;;;;;;;;21.52;53.33;102567.25;2042217;29;1076;-68
2021/09/27 01:53:23;;;;;;;;;;;;;;;21.49;53.78;102557.38;2042756;29;852;-68
2021/09/27 01:54:36;;;;;;;;;;;;;;;21.50;53.60;102564.53;2042824;29;896;-68
2021/09/27 01:55:42;;;;;;;;;;;;;;;21.51;53.30;102566.34;2042774;29;990;-68
2021/09/27 01:57:04;;;;;;;;;;;;;;;21.51;53.20;102560.94;2042724;29;982;-68
2021/09/27 01:58:06;;;;;;;;;;;;;;;21.51;53.58;102557.38;2042593;29;1042;-69
2021/09/27 01:59:14;;;;;;;;;;;;;;;21.52;53.96;102561.84;2042708;29;1045;-68
2021/09/27 02:00:24;;;;;;;;;;;;;;;21.51;53.65;102554.66;2042668;29;986;-68
2021/09/27 02:01:31;;;;;;;;;;;;;;;21.53;53.14;102561.81;2042583;29;1521;-68
2021/09/27 02:02:35;;;;;;;;;;;;;;;21.49;53.50;102557.38;2042766;29;844;-68
2021/09/27 02:03:37;;;;;;;;;;;;;;;21.48;53.88;102556.50;2042740;29;1151;-68
2021/09/27 02:04:56;;;;;;;;;;;;;;;21.49;54.14;102557.38;2042764;29;886;-68
2021/09/27 02:05:59;;;;;;;;;;;;;;;21.50;53.65;102559.16;2042224;29;1411;-68
2021/09/27 02:07:00;;;;;;;;;;;;;;;21.50;53.21;102558.28;2046394;29;1890;-68
2021/09/27 02:08:04;;;;;;;;;;;;;;;21.48;53.52;102555.63;2050561;29;1236;-68
2021/09/27 02:09:12;;;;;;;;;;;;;;;21.47;54.19;102562.78;2050242;29;1491;-68
2021/09/27 02:10:14;;;;;;;;;;;;;;;21.47;53.35;102553.81;2050549;29;1034;-68
2021/09/27 02:11:17;;;;;;;;;;;;;;;21.49;54.13;102560.06;2050455;28;800;-68
2021/09/27 02:12:20;;;;;;;;;;;;;;;21.48;53.89;102561.00;2050107;28;912;-67
2021/09/27 02:13:30;;;;;;;;;;;;;;;21.52;54.03;102553.75;2050838;29;824;-68
2021/09/27 02:14:33;;;;;;;;;;;;;;;21.47;53.70;102554.69;2050515;29;851;-67
2021/09/27 02:15:37;;;;;;;;;;;;;;;21.47;53.62;102559.22;2050500;29;1011;-68
2021/09/27 02:16:40;;;;;;;;;;;;;;;21.47;53.75;102559.22;2050525;29;768;-68
2021/09/27 02:17:43;;;;;;;;;;;;;;;21.50;53.49;102556.47;2050375;29;1033;-68
2021/09/27 02:18:48;;;;;;;;;;;;;;;21.50;53.36;102569.06;2062782;28;962;-68
2021/09/27 02:19:55;;;;;;;;;;;;;;;21.47;53.63;102570.00;2075537;28;966;-68
2021/09/27 02:20:58;;;;;;;;;;;;;;;21.47;53.68;102562.78;2075478;28;843;-67
2021/09/27 02:22:10;;;;;;;;;;;;;;;21.46;53.60;102566.41;2075507;28;1250;-68
2021/09/27 02:23:19;;;;;;;;;;;;;;;21.50;53.36;102569.06;2075262;28;898;-67
2021/09/27 02:24:34;;;;;;;;;;;;;;;21.46;54.34;102571.78;2075515;28;788;-67
2021/09/27 02:25:36;;;;;;;;;;;;;;;21.47;54.26;102561.91;2075615;28;981;-67
2021/09/27 02:26:36;;;;;;;;;;;;;;;21.44;54.26;102560.13;2075409;28;1981;-67
2021/09/27 02:27:36;;;;;;;;;;;;;;;21.44;53.79;102565.50;2075467;28;977;-67
2021/09/27 02:28:37;;;;;;;;;;;;;;;21.46;54.39;102557.44;2075278;28;854;-67
2021/09/27 02:29:37;;;;;;;;;;;;;;;21.45;54.64;102564.59;2075454;28;879;-66
2021/09/27 02:30:56;;;;;;;;;;;;;;;21.46;53.99;102563.69;2075478;28;820;-67
2021/09/27 02:32:02;;;;;;;;;;;;;;;21.46;53.38;102571.78;2075457;28;883;-66
2021/09/27 02:33:14;;;;;;;;;;;;;;;21.45;53.57;102567.31;2075424;28;962;-65
2021/09/27 02:34:26;;;;;;;;;;;;;;;21.46;53.80;102565.53;2075215;28;986;-64
2021/09/27 02:35:38;;;;;;;;;;;;;;;21.45;53.81;102563.72;2075452;28;1005;-65
2021/09/27 02:36:40;;;;;;;;;;;;;;;21.46;53.61;102573.59;2075421;28;978;-65
2021/09/27 02:37:51;;;;;;;;;;;;;;;21.46;53.92;102574.47;2075359;28;949;-65
2021/09/27 02:39:00;;;;;;;;;;;;;;;21.51;53.61;102569.03;2075437;28;1370;-66
2021/09/27 02:40:15;;;;;;;;;;;;;;;21.50;53.53;102574.44;2075219;28;824;-64
2021/09/27 02:41:21;;;;;;;;;;;;;;;21.52;53.95;102575.34;2075458;28;902;-66
2021/09/27 02:42:29;;;;;;;;;;;;;;;21.51;54.16;102574.41;2075261;28;982;-65
2021/09/27 02:43:29;;;;;;;;;;;;;;;21.49;53.68;102576.25;2075257;28;1104;-68
2021/09/27 02:44:29;;;;;;;;;;;;;;;21.50;53.73;102575.34;2075322;28;796;-67
2021/09/27 02:45:30;;;;;;;;;;;;;;;21.48;54.11;102571.78;2075429;28;936;-68
2021/09/27 02:46:30;;;;;;;;;;;;;;;21.53;53.56;102571.72;2075271;28;1894;-68
2021/09/27 02:47:34;;;;;;;;;;;;;;;21.48;53.46;102571.78;2075395;28;772;-67
2021/09/27 02:48:42;;;;;;;;;;;;;;;21.48;53.99;102572.66;2075178;28;859;-68
2021/09/27 02:49:44;;;;;;;;;;;;;;;21.47;53.56;102573.56;2075333;28;870;-68
2021/09/27 02:50:48;;;;;;;;;;;;;;;21.45;54.20;102575.41;2075292;28;788;-67
2021/09/27 02:51:48;;;;;;;;;;;;;;;21.46;53.85;102523.25;2075394;28;815;-68
2021/09/27 02:52:48;;;;;;;;;;;;;;;21.44;54.03;102526.91;2075220;28;910;-68
2021/09/27 02:53:49;;;;;;;;;;;;;;;21.45;53.93;102520.59;2074912;28;1037;-68
2021/09/27 02:54:56;;;;;;;;;;;;;;;21.44;53.99;102527.78;2075292;28;966;-68
2021/09/27 02:56:02;;;;;;;;;;;;;;;21.45;53.50;102531.38;2075326;28;784;-68
2021/09/27 02:57:21;;;;;;;;;;;;;;;21.43;53.81;102503.53;2075248;28;1029;-68
2021/09/27 02:58:28;;;;;;;;;;;;;;;21.44;53.64;102522.38;2075232;28;937;-68
2021/09/27 02:59:31;;;;;;;;;;;;;;;21.45;54.35;102586.19;2075099;28;811;-68
2021/09/27 03:00:34;;;;;;;;;;;;;;;21.44;53.66;102576.31;2074855;28;795;-68
2021/09/27 03:01:40;;;;;;;;;;;;;;;21.44;54.56;102570.03;2075052;28;1017;-67
2021/09/27 03:02:40;;;;;;;;;;;;;;;21.45;53.68;102567.31;2075230;28;974;-68
2021/09/27 03:03:59;;;;;;;;;;;;;;;21.47;53.66;102570.00;2075230;28;986;-68
2021/09/27 03:05:03;;;;;;;;;;;;;;;21.46;54.16;102569.09;2075258;28;871;-68
2021/09/27 03:06:03;;;;;;;;;;;;;;;21.47;53.21;102568.19;2075222;28;978;-68
2021/09/27 03:07:10;;;;;;;;;;;;;;;21.46;54.34;102574.47;2075105;28;1898;-68
2021/09/27 03:08:28;;;;;;;;;;;;;;;21.48;53.52;102571.78;2074951;28;1033;-68
2021/09/27 03:09:52;;;;;;;;;;;;;;;21.45;53.72;102564.59;2075234;28;879;-68
2021/09/27 03:11:11;;;;;;;;;;;;;;;21.46;53.78;102579.00;2072085;28;1077;-67
2021/09/27 03:12:17;;;;;;;;;;;;;;;21.47;54.29;102573.56;2075245;28;938;-68
2021/09/27 03:13:33;;;;;;;;;;;;;;;21.47;53.49;102578.97;2075194;28;986;-68
2021/09/27 03:14:48;;;;;;;;;;;;;;;21.45;54.21;102574.50;2075061;28;986;-67
2021/09/27 03:16:12;;;;;;;;;;;;;;;21.44;53.50;102573.59;2075243;28;985;-68
2021/09/27 03:17:30;;;;;;;;;;;;;;;21.44;54.37;102572.72;2075268;28;1052;-68
2021/09/27 03:18:54;;;;;;;;;;;;;;;21.43;53.71;102579.03;2075311;28;1010;-68
2021/09/27 03:20:13;;;;;;;;;;;;;;;21.43;53.72;102581.72;2074916;28;855;-67
2021/09/27 03:21:34;;;;;;;;;;;;;;;21.44;53.57;102575.41;2075171;28;910;-68
2021/09/27 03:22:52;;;;;;;;;;;;;;;21.43;54.73;102563.72;2075140;28;895;-68
2021/09/27 03:24:09;;;;;;;;;;;;;;;21.42;54.47;102543.06;2068776;28;1475;-68
2021/09/27 03:25:19;;;;;;;;;;;;;;;21.45;53.78;102566.44;2066895;28;803;-67
2021/09/27 03:26:32;;;;;;;;;;;;;;;21.44;53.43;102578.13;2066967;28;1049;-68
2021/09/27 03:27:35;;;;;;;;;;;;;;;21.42;54.35;102582.63;2067194;28;643;-68
2021/09/27 03:28:35;;;;;;;;;;;;;;;21.43;53.91;102577.22;2066950;28;902;-68
2021/09/27 03:29:42;;;;;;;;;;;;;;;21.42;53.93;102580.81;2066975;28;875;-67
2021/09/27 03:30:48;;;;;;;;;;;;;;;21.42;54.27;102578.13;2066798;28;808;-68
2021/09/27 03:31:56;;;;;;;;;;;;;;;21.43;53.57;102579.91;2066959;28;1001;-68
2021/09/27 03:33:05;;;;;;;;;;;;;;;21.41;54.01;102576.31;2066952;28;788;-68
2021/09/27 03:34:17;;;;;;;;;;;;;;;21.42;54.23;102577.25;2067048;28;989;-68
2021/09/27 03:35:31;;;;;;;;;;;;;;;21.41;53.73;102581.72;2067000;28;1045;-68
2021/09/27 03:36:31;;;;;;;;;;;;;;;21.43;53.72;102582.59;2066694;28;887;-68
2021/09/27 03:37:50;;;;;;;;;;;;;;;21.42;54.25;102586.22;2066950;28;930;-68
2021/09/27 03:39:16;;;;;;;;;;;;;;;21.41;53.87;102588.94;2066936;28;868;-68
2021/09/27 03:40:35;;;;;;;;;;;;;;;21.41;53.79;102586.22;2074412;28;878;-68
2021/09/27 03:41:38;;;;;;;;;;;;;;;21.44;54.01;102587.09;2072403;28;903;-68
2021/09/27 03:42:44;;;;;;;;;;;;;;;21.42;53.70;102591.59;2066729;28;824;-68
2021/09/27 03:43:50;;;;;;;;;;;;;;;21.42;54.03;102588.03;2067055;28;923;-68
2021/09/27 03:45:20;;;;;;;;;;;;;;;21.41;54.27;102586.22;2066962;28;978;-67
2021/09/27 03:46:28;;;;;;;;;;;;;;;21.42;53.80;102588.91;2065947;28;1065;-68
2021/09/27 03:47:34;;;;;;;;;;;;;;;21.42;53.88;102585.31;2065903;28;972;-67
2021/09/27 03:48:42;;;;;;;;;;;;;;;21.43;53.65;102588.00;2065846;28;1508;-68
2021/09/27 03:49:46;;;;;;;;;;;;;;;21.41;53.58;102588.94;2066067;28;805;-68
2021/09/27 03:51:02;;;;;;;;;;;;;;;21.42;53.59;102579.94;2065927;28;1045;-68
2021/09/27 03:52:06;;;;;;;;;;;;;;;21.40;54.64;102579.06;2066074;28;841;-68
2021/09/27 03:53:26;;;;;;;;;;;;;;;21.41;54.32;102581.72;2065732;28;933;-68
2021/09/27 03:54:30;;;;;;;;;;;;;;;21.43;53.95;102585.28;2065574;28;1392;-68
2021/09/27 03:55:31;;;;;;;;;;;;;;;21.41;54.65;102580.84;2066028;28;990;-68
2021/09/27 03:56:39;;;;;;;;;;;;;;;21.43;54.17;102581.72;2065914;28;804;-68
2021/09/27 03:57:48;;;;;;;;;;;;;;;21.40;53.87;102584.44;2066122;28;978;-67
2021/09/27 03:58:52;;;;;;;;;;;;;;;21.40;53.98;102582.63;2065748;28;940;-68
2021/09/27 03:59:58;;;;;;;;;;;;;;;21.41;54.12;102587.13;2065984;28;1227;-68
2021/09/27 04:01:04;;;;;;;;;;;;;;;21.38;53.77;102588.97;2065977;28;926;-68
2021/09/27 04:02:05;;;;;;;;;;;;;;;21.35;54.62;102597.06;2065987;28;1345;-68
2021/09/27 04:03:10;;;;;;;;;;;;;;;21.47;55.32;102565.50;2065949;28;956;-68
2021/09/27 04:04:29;;;;;;;;;;;;;;;21.92;54.33;102556.94;2066015;28;902;-68
2021/09/27 04:05:43;;;;;;;;;;;;;;;22.03;54.96;102559.50;2065985;28;901;-68
2021/09/27 04:06:49;;;;;;;;;;;;;;;22.10;55.55;102559.44;2065930;28;1967;-68
2021/09/27 04:07:58;;;;;;;;;;;;;;;22.14;56.69;102566.56;2065861;28;792;-68
2021/09/27 04:09:01;;;;;;;;;;;;;;;22.24;56.11;102572.72;2065849;28;1111;-68
2021/09/27 04:10:16;;;;;;;;;;;;;;;22.31;56.19;102580.75;2066044;28;966;-67
2021/09/27 04:11:27;;;;;;;;;;;;;;;22.39;56.79;102571.63;2065913;28;993;-68
2021/09/27 04:12:46;;;;;;;;;;;;;;;22.45;56.88;102576.97;2065944;28;870;-68
2021/09/27 04:14:02;;;;;;;;;;;;;;;22.51;55.88;102579.59;2065931;28;1284;-68
2021/09/27 04:15:35;;;;;;;;;;;;;;;22.59;55.79;102574.97;2065989;28;1236;-68
2021/09/27 04:16:35;;;;;;;;;;;;;;;22.67;54.92;102579.38;2049847;29;1285;-68
2021/09/27 04:17:40;;;;;;;;;;;;;;;22.69;55.35;102582.94;2049879;29;1066;-67
2021/09/27 04:19:05;;;;;;;;;;;;;;;22.74;55.56;102571.13;2049477;29;962;-68
2021/09/27 04:20:09;;;;;;;;;;;;;;;22.74;55.75;102576.53;2049889;29;986;-68
2021/09/27 04:21:16;;;;;;;;;;;;;;;22.79;55.27;102573.78;2049933;29;868;-67
2021/09/27 04:22:23;;;;;;;;;;;;;;;22.82;54.43;102572.84;2050050;29;792;-66
2021/09/27 04:23:26;;;;;;;;;;;;;;;22.85;54.10;102576.41;2050036;29;960;-68
2021/09/27 04:24:34;;;;;;;;;;;;;;;22.85;53.82;102554.78;2049585;29;902;-68
2021/09/27 04:25:55;;;;;;;;;;;;;;;22.87;53.47;102566.47;2049993;29;934;-68
2021/09/27 04:26:58;;;;;;;;;;;;;;;22.89;53.06;102563.72;2049840;29;1980;-67
2021/09/27 04:28:02;;;;;;;;;;;;;;;22.89;52.75;102566.41;2049932;29;1485;-67
2021/09/27 04:29:10;;;;;;;;;;;;;;;22.85;52.49;102562.88;2049814;29;827;-68
2021/09/27 04:30:29;;;;;;;;;;;;;;;22.87;51.92;102560.16;2049629;29;800;-67
2021/09/27 04:31:48;;;;;;;;;;;;;;;22.84;51.94;102568.31;2049920;29;888;-68
2021/09/27 04:33:11;;;;;;;;;;;;;;;22.87;51.29;102568.25;2049813;29;1046;-67
2021/09/27 04:34:14;;;;;;;;;;;;;;;22.84;50.57;102571.91;2049558;29;1255;-68
2021/09/27 04:35:20;;;;;;;;;;;;;;;22.83;50.35;102571.91;2050220;28;915;-67
2021/09/27 04:36:22;;;;;;;;;;;;;;;22.78;50.49;102567.47;2051076;29;1450;-68
2021/09/27 04:37:24;;;;;;;;;;;;;;;22.79;49.81;102571.09;2051345;29;950;-68
2021/09/27 04:38:25;;;;;;;;;;;;;;;22.77;50.39;102567.50;2051320;29;1027;-68
2021/09/27 04:39:28;;;;;;;;;;;;;;;22.75;49.48;102570.22;2051312;29;1030;-68
2021/09/27 04:40:37;;;;;;;;;;;;;;;22.74;50.19;102571.13;2051126;29;1718;-68
2021/09/27 04:41:55;;;;;;;;;;;;;;;22.78;49.34;102564.78;2051134;29;970;-68
2021/09/27 04:43:06;;;;;;;;;;;;;;;22.76;49.54;102571.13;2051417;29;872;-68
2021/09/27 04:44:06;;;;;;;;;;;;;;;22.78;49.00;102567.47;2051281;29;986;-67
2021/09/27 04:45:09;;;;;;;;;;;;;;;22.78;48.78;102567.47;2051154;29;1233;-68
2021/09/27 04:46:39;;;;;;;;;;;;;;;22.79;48.93;102566.56;2051149;29;963;-68
2021/09/27 04:47:57;;;;;;;;;;;;;;;22.78;48.63;102570.19;2051120;29;1052;-68
2021/09/27 04:49:16;;;;;;;;;;;;;;;22.78;48.22;102570.19;2051546;29;1363;-66
2021/09/27 04:50:19;;;;;;;;;;;;;;;22.79;47.90;102565.69;2051478;29;943;-68
2021/09/27 04:51:28;;;;;;;;;;;;;;;22.83;47.97;102567.41;2051295;29;761;-68
2021/09/27 04:52:47;;;;;;;;;;;;;;;22.80;48.42;102580.97;2051914;28;948;-68
2021/09/27 04:54:13;;;;;;;;;;;;;;;22.83;48.10;102575.53;2067338;28;845;-68
2021/09/27 04:55:16;;;;;;;;;;;;;;;22.83;48.12;102574.63;2043390;29;1208;-68
2021/09/27 04:56:28;;;;;;;;;;;;;;;22.87;48.29;102573.66;2043173;29;865;-68
2021/09/27 04:57:32;;;;;;;;;;;;;;;22.84;49.10;102566.50;2043231;29;1350;-68
2021/09/27 04:58:38;;;;;;;;;;;;;;;22.83;48.31;102574.63;2042876;29;1164;-68
2021/09/27 04:59:49;;;;;;;;;;;;;;;22.85;48.71;102576.41;2043278;29;1034;-68
2021/09/27 05:01:08;;;;;;;;;;;;;;;22.84;48.60;102582.72;2043165;29;945;-68
2021/09/27 05:02:20;;;;;;;;;;;;;;;22.86;48.82;102569.16;2043245;29;880;-68
2021/09/27 05:03:31;;;;;;;;;;;;;;;22.87;48.70;102574.56;2043209;29;884;-68
2021/09/27 05:04:37;;;;;;;;;;;;;;;22.87;49.53;102569.16;2043190;29;856;-68
2021/09/27 05:05:53;;;;;;;;;;;;;;;22.87;49.09;102577.28;2043171;29;1072;-68
2021/09/27 05:07:16;;;;;;;;;;;;;;;22.87;49.09;102563.75;2042965;29;1895;-67
2021/09/27 05:08:24;;;;;;;;;;;;;;;22.87;49.65;102571.88;2019609;29;1284;-68
2021/09/27 05:09:39;;;;;;;;;;;;;;;22.89;49.60;102564.63;2019699;29;979;-68
2021/09/27 05:10:50;;;;;;;;;;;;;;;22.90;49.34;102576.31;2019754;29;1003;-68
2021/09/27 05:12:09;;;;;;;;;;;;;;;22.89;49.23;102577.22;2019498;29;1113;-68
2021/09/27 05:13:28;;;;;;;;;;;;;;;22.90;48.73;102570.91;2019738;29;944;-68
2021/09/27 05:14:37;;;;;;;;;;;;;;;22.88;49.36;102573.66;2019802;29;936;-68
2021/09/27 05:15:52;;;;;;;;;;;;;;;22.90;49.48;102571.81;2019717;29;979;-68
2021/09/27 05:17:12;;;;;;;;;;;;;;;22.90;49.53;102576.31;2019838;29;848;-68
2021/09/27 05:18:31;;;;;;;;;;;;;;;22.86;50.11;102582.69;2011543;29;1263;-67
2021/09/27 05:19:49;;;;;;;;;;;;;;;22.89;50.51;102583.53;2012174;29;946;-68
2021/09/27 05:21:05;;;;;;;;;;;;;;;22.89;49.22;102580.84;2012301;29;1212;-67
2021/09/27 05:22:05;;;;;;;;;;;;;;;22.90;49.15;102585.31;2012196;29;947;-68
2021/09/27 05:23:24;;;;;;;;;;;;;;;22.90;49.82;102579.00;2011774;29;870;-68
2021/09/27 05:24:32;;;;;;;;;;;;;;;22.89;49.44;102578.13;2011872;29;1059;-68
2021/09/27 05:25:51;;;;;;;;;;;;;;;22.94;49.74;102576.25;2011988;29;844;-68
2021/09/27 05:27:11;;;;;;;;;;;;;;;22.92;50.02;102574.47;2011843;29;1982;-68
2021/09/27 05:28:30;;;;;;;;;;;;;;;22.93;48.59;102574.47;2011877;29;896;-68
2021/09/27 05:29:36;;;;;;;;;;;;;;;22.93;48.89;102569.06;2011679;29;794;-68
2021/09/27 05:30:51;;;;;;;;;;;;;;;22.94;48.77;102564.53;2011884;29;906;-68
2021/09/27 05:31:54;;;;;;;;;;;;;;;22.97;48.94;102566.28;2011963;29;804;-68
2021/09/27 05:33:00;;;;;;;;;;;;;;;22.93;49.17;102571.78;2021421;29;1374;-68
2021/09/27 05:34:03;;;;;;;;;;;;;;;22.97;49.04;102563.59;2027307;29;963;-68
2021/09/27 05:35:22;;;;;;;;;;;;;;;22.92;48.64;102571.78;2027057;29;820;-68
2021/09/27 05:36:41;;;;;;;;;;;;;;;22.94;48.68;102576.25;2027228;29;932;-68
2021/09/27 05:37:53;;;;;;;;;;;;;;;22.95;49.05;102569.03;2027352;29;1259;-68
2021/09/27 05:39:08;;;;;;;;;;;;;;;22.99;48.99;102567.16;2027303;29;963;-68
2021/09/27 05:40:28;;;;;;;;;;;;;;;22.99;49.85;102569.84;2027223;29;971;-67
2021/09/27 05:41:36;;;;;;;;;;;;;;;23.00;49.84;102571.63;2027210;29;812;-68
2021/09/27 05:42:55;;;;;;;;;;;;;;;23.03;49.61;102574.28;2027257;29;920;-68
2021/09/27 05:44:10;;;;;;;;;;;;;;;23.05;49.75;102569.75;2027270;29;1050;-68
2021/09/27 05:45:29;;;;;;;;;;;;;;;23.05;49.42;102559.84;2027279;29;872;-68
2021/09/27 05:46:32;;;;;;;;;;;;;;;23.06;49.62;102552.63;2049111;28;948;-68
2021/09/27 05:47:36;;;;;;;;;;;;;;;23.07;49.90;102549.00;2050282;29;814;-68
2021/09/27 05:48:58;;;;;;;;;;;;;;;23.09;49.86;102542.66;2050084;29;1837;-68
2021/09/27 05:50:07;;;;;;;;;;;;;;;23.13;50.02;102540.78;2048635;29;1617;-68
2021/09/27 05:51:37;;;;;;;;;;;;;;;23.10;49.94;102543.53;2046998;29;1418;-68
2021/09/27 05:52:37;;;;;;;;;;;;;;;23.08;50.00;102540.88;2032153;29;1473;-68
2021/09/27 05:53:46;;;;;;;;;;;;;;;23.10;49.70;102546.25;2032886;29;1998;-67
2021/09/27 05:54:46;;;;;;;;;;;;;;;23.09;50.32;102539.97;2035200;29;875;-67
2021/09/27 05:56:01;;;;;;;;;;;;;;;23.13;49.87;102548.03;2036796;29;1478;-67
2021/09/27 05:57:11;;;;;;;;;;;;;;;23.12;50.21;102543.53;2042926;29;980;-67
2021/09/27 05:58:14;;;;;;;;;;;;;;;23.12;49.92;102540.84;2042687;29;1042;-68
2021/09/27 05:59:19;;;;;;;;;;;;;;;23.10;50.44;102546.25;2039117;29;1615;-68